createdAt,value
2017-06-06T00:01:01.032Z,7.35
2017-06-06T00:03:33.743Z,7.05
2017-06-06T00:06:03.632Z,6.82
2017-06-06T00:08:33.383Z,7.10
2017-06-06T00:11:05.867Z,6.78
2017-06-06T00:13:38.364Z,6.60
2017-06-06T00:16:11.884Z,6.07
2017-06-06T00:18:45.255Z,6.72
2017-06-06T00:21:18.287Z,6.45
2017-06-06T00:23:51.172Z,7.40
2017-06-06T00:26:24.005Z,6.30
2017-06-06T00:28:56.851Z,6.25
2017-06-06T00:31:29.919Z,6.72
2017-06-06T00:34:02.947Z,6.80
2017-06-06T00:36:35.915Z,5.68
2017-06-06T00:39:08.611Z,5.87
2017-06-06T00:41:40.858Z,6.47
2017-06-06T00:44:13.751Z,6.47
2017-06-06T00:46:46.664Z,6.10
2017-06-06T00:49:19.660Z,5.72
2017-06-06T00:51:52.650Z,6.93
2017-06-06T00:54:25.644Z,7.18
2017-06-06T00:56:58.683Z,7.22
2017-06-06T00:59:31.481Z,5.37
2017-06-06T01:02:04.156Z,6.70
2017-06-06T01:04:37.015Z,6.12
2017-06-06T01:07:10.047Z,5.72
2017-06-06T01:09:40.119Z,6.00
2017-06-06T01:12:13.264Z,5.78
2017-06-06T01:14:45.984Z,6.15
2017-06-06T01:17:18.523Z,5.60
2017-06-06T01:19:51.344Z,6.15
2017-06-06T01:22:24.123Z,6.25
2017-06-06T01:24:57.227Z,7.18
2017-06-06T01:27:30.097Z,6.50
2017-06-06T01:30:08.458Z,5.87
2017-06-06T01:32:50.089Z,5.70
2017-06-06T01:35:23.219Z,6.15
2017-06-06T01:37:55.968Z,6.40
2017-06-06T01:40:28.871Z,6.15
2017-06-06T01:43:01.535Z,6.00
2017-06-06T01:45:34.631Z,6.30
2017-06-06T01:48:06.983Z,6.87
2017-06-06T01:50:40.028Z,7.05
2017-06-06T01:53:12.903Z,6.70
2017-06-06T01:55:45.660Z,6.70
2017-06-06T01:58:17.898Z,6.97
2017-06-06T02:00:50.969Z,6.78
2017-06-06T02:03:23.747Z,7.65
2017-06-06T02:05:56.595Z,7.20
2017-06-06T02:08:29.545Z,5.30
2017-06-06T02:11:02.284Z,5.70
2017-06-06T02:13:35.139Z,6.32
2017-06-06T02:16:08.059Z,6.43
2017-06-06T02:18:42.787Z,6.25
2017-06-06T02:21:15.595Z,7.18
2017-06-06T02:23:48.216Z,7.15
2017-06-06T02:26:20.803Z,7.15
2017-06-06T02:28:53.599Z,6.10
2017-06-06T02:31:26.259Z,5.72
2017-06-06T02:34:01.965Z,5.90
2017-06-06T02:36:34.732Z,6.45
2017-06-06T02:39:07.543Z,6.37
2017-06-06T02:41:40.691Z,7.12
2017-06-06T02:44:13.656Z,6.50
2017-06-06T02:46:46.769Z,6.78
2017-06-06T02:49:19.868Z,7.78
2017-06-06T02:51:52.951Z,6.35
2017-06-06T02:54:25.207Z,6.12
2017-06-06T02:56:58.108Z,6.43
2017-06-06T02:59:31.044Z,6.65
2017-06-06T03:02:03.891Z,7.25
2017-06-06T03:04:36.759Z,6.53
2017-06-06T03:07:09.757Z,7.15
2017-06-06T03:09:42.611Z,6.80
2017-06-06T03:12:15.675Z,7.12
2017-06-06T03:14:48.593Z,7.50
2017-06-06T03:17:21.540Z,6.80
2017-06-06T03:19:54.696Z,7.37
2017-06-06T03:22:27.639Z,5.93
2017-06-06T03:25:00.479Z,7.62
2017-06-06T03:27:33.372Z,6.50
2017-06-06T03:30:06.511Z,6.40
2017-06-06T03:32:40.147Z,6.80
2017-06-06T03:35:13.297Z,7.22
2017-06-06T03:37:46.156Z,7.10
2017-06-06T03:40:18.883Z,7.35
2017-06-06T03:42:51.703Z,7.40
2017-06-06T03:45:21.579Z,6.45
2017-06-06T03:47:54.283Z,6.57
2017-06-06T03:50:27.068Z,7.05
2017-06-06T03:52:59.943Z,6.85
2017-06-06T03:55:32.971Z,7.60
2017-06-06T03:58:05.867Z,7.00
2017-06-06T04:00:38.635Z,6.25
2017-06-06T04:03:11.455Z,6.72
2017-06-06T04:05:44.401Z,5.57
2017-06-06T04:08:17.387Z,6.85
2017-06-06T04:10:50.509Z,6.85
2017-06-06T04:13:23.079Z,6.40
2017-06-06T04:15:55.898Z,6.20
2017-06-06T04:18:28.803Z,7.40
2017-06-06T04:21:01.768Z,6.18
2017-06-06T04:23:34.025Z,7.57
2017-06-06T04:26:06.956Z,6.85
2017-06-06T04:28:40.272Z,6.25
2017-06-06T04:31:13.029Z,6.35
2017-06-06T04:33:45.707Z,6.72
2017-06-06T04:36:18.764Z,6.90
2017-06-06T04:38:51.556Z,6.35
2017-06-06T04:41:24.440Z,6.97
2017-06-06T04:43:57.375Z,6.95
2017-06-06T04:46:30.042Z,6.50
2017-06-06T04:49:05.203Z,7.10
2017-06-06T04:51:37.550Z,6.60
2017-06-06T04:54:10.341Z,7.50
2017-06-06T04:56:43.167Z,7.65
2017-06-06T04:59:15.919Z,7.30
2017-06-06T05:01:48.855Z,7.80
2017-06-06T05:04:22.011Z,7.68
2017-06-06T05:06:55.160Z,8.45
2017-06-06T05:09:28.223Z,7.43
2017-06-06T05:12:01.231Z,8.57
2017-06-06T05:14:34.159Z,9.67
2017-06-06T05:17:06.999Z,12.47
2017-06-06T05:19:40.495Z,10.43
2017-06-06T05:22:12.760Z,11.20
2017-06-06T05:24:45.375Z,11.37
2017-06-06T05:27:18.484Z,12.70
2017-06-06T05:29:51.311Z,12.10
2017-06-06T05:32:24.355Z,12.23
2017-06-06T05:34:56.551Z,13.00
2017-06-06T05:37:29.379Z,10.70
2017-06-06T05:40:02.377Z,11.90
2017-06-06T05:42:35.340Z,12.57
2017-06-06T05:45:08.391Z,11.40
2017-06-06T05:47:41.287Z,12.50
2017-06-06T05:50:14.307Z,12.97
2017-06-06T05:52:47.167Z,11.90
2017-06-06T05:55:20.163Z,12.57
2017-06-06T05:58:03.788Z,12.67
2017-06-06T06:00:36.893Z,11.90
2017-06-06T06:03:10.562Z,11.20
2017-06-06T06:05:43.694Z,10.53
2017-06-06T06:08:16.634Z,12.63
2017-06-06T06:10:49.452Z,11.00
2017-06-06T06:13:22.507Z,10.27
2017-06-06T06:15:55.519Z,10.57
2017-06-06T06:18:28.411Z,11.00
2017-06-06T06:21:01.216Z,10.40
2017-06-06T06:23:34.348Z,10.50
2017-06-06T06:26:07.196Z,9.70
2017-06-06T06:28:40.071Z,10.00
2017-06-06T06:31:12.896Z,10.63
2017-06-06T06:33:45.686Z,10.20
2017-06-06T06:36:18.488Z,10.10
2017-06-06T06:38:51.545Z,11.40
2017-06-06T06:41:24.091Z,9.70
2017-06-06T06:43:57.147Z,11.23
2017-06-06T06:46:30.139Z,10.00
2017-06-06T06:49:03.304Z,11.87
2017-06-06T06:51:36.292Z,9.43
2017-06-06T06:54:09.232Z,10.43
2017-06-06T06:56:41.991Z,13.23
2017-06-06T06:59:14.611Z,10.60
2017-06-06T07:01:46.921Z,10.30
2017-06-06T07:04:20.039Z,10.27
2017-06-06T07:06:52.847Z,9.93
2017-06-06T07:09:25.391Z,10.90
2017-06-06T07:11:57.835Z,10.63
2017-06-06T07:14:30.395Z,10.50
2017-06-06T07:17:02.931Z,9.50
2017-06-06T07:19:35.475Z,10.33
2017-06-06T07:22:08.161Z,10.47
2017-06-06T07:24:41.019Z,9.20
2017-06-06T07:27:13.895Z,10.80
2017-06-06T07:29:46.957Z,10.70
2017-06-06T07:32:19.791Z,10.80
2017-06-06T07:34:52.591Z,10.10
2017-06-06T07:37:25.455Z,9.83
2017-06-06T07:39:58.178Z,11.33
2017-06-06T07:42:31.152Z,10.83
2017-06-06T07:45:04.211Z,11.17
2017-06-06T07:47:37.267Z,10.77
2017-06-06T07:50:10.608Z,10.90
2017-06-06T07:52:43.634Z,9.60
2017-06-06T07:55:16.615Z,8.37
2017-06-06T07:57:46.559Z,7.43
2017-06-06T08:00:19.319Z,7.90
2017-06-06T08:02:52.034Z,8.27
2017-06-06T08:05:25.075Z,7.23
2017-06-06T08:07:57.811Z,6.90
2017-06-06T08:10:30.836Z,5.73
2017-06-06T08:13:03.514Z,6.17
2017-06-06T08:15:36.223Z,5.30
2017-06-06T08:18:08.919Z,6.53
2017-06-06T08:20:41.495Z,5.70
2017-06-06T08:23:14.099Z,5.43
2017-06-06T08:25:46.703Z,5.30
2017-06-06T08:28:19.496Z,4.47
2017-06-06T08:30:52.067Z,4.23
2017-06-06T08:33:24.567Z,3.63
2017-06-06T08:35:57.323Z,3.30
2017-06-06T08:38:30.461Z,3.80
2017-06-06T08:41:03.311Z,2.83
2017-06-06T08:43:36.207Z,2.90
2017-06-06T08:46:08.968Z,3.10
2017-06-06T08:48:41.609Z,2.90
2017-06-06T08:51:14.608Z,3.70
2017-06-06T08:53:47.306Z,3.10
2017-06-06T08:56:20.051Z,3.63
2017-06-06T08:58:53.071Z,2.90
2017-06-06T09:01:25.948Z,3.00
2017-06-06T09:03:58.759Z,2.87
2017-06-06T09:06:31.667Z,2.60
2017-06-06T09:09:04.039Z,2.80
2017-06-06T09:11:36.308Z,2.80
2017-06-06T09:14:09.179Z,2.80
2017-06-06T09:16:42.034Z,3.77
2017-06-06T09:19:15.056Z,2.90
2017-06-06T09:21:47.963Z,2.80
2017-06-06T09:24:20.687Z,3.40
2017-06-06T09:26:53.423Z,2.90
2017-06-06T09:29:26.243Z,3.23
2017-06-06T09:31:59.316Z,2.33
2017-06-06T09:34:29.147Z,2.83
2017-06-06T09:37:01.876Z,3.20
2017-06-06T09:39:34.816Z,2.73
2017-06-06T09:42:07.351Z,3.30
2017-06-06T09:44:40.623Z,3.40
2017-06-06T09:47:13.748Z,3.63
2017-06-06T09:49:46.731Z,3.30
2017-06-06T09:52:18.979Z,2.83
2017-06-06T09:54:51.947Z,3.13
2017-06-06T09:57:24.998Z,2.70
2017-06-06T09:59:57.751Z,2.97
2017-06-06T10:02:30.871Z,2.43
2017-06-06T10:05:03.836Z,2.00
2017-06-06T10:07:36.906Z,2.27
2017-06-06T10:10:10.479Z,1.80
2017-06-06T10:12:42.699Z,2.27
2017-06-06T10:15:15.584Z,1.50
2017-06-06T10:17:48.501Z,1.87
2017-06-06T10:20:21.311Z,1.50
2017-06-06T10:22:54.219Z,1.50
2017-06-06T10:25:26.915Z,1.40
2017-06-06T10:27:59.739Z,1.63
2017-06-06T10:30:32.549Z,1.60
2017-06-06T10:33:05.503Z,1.50
2017-06-06T10:35:38.475Z,1.23
2017-06-06T10:38:11.407Z,1.30
2017-06-06T10:40:44.239Z,1.30
2017-06-06T10:43:16.703Z,1.30
2017-06-06T10:45:49.148Z,1.00
2017-06-06T10:48:22.085Z,1.10
2017-06-06T10:50:54.683Z,1.13
2017-06-06T10:53:27.243Z,0.90
2017-06-06T10:55:59.855Z,0.83
2017-06-06T10:58:32.303Z,1.00
2017-06-06T11:01:04.955Z,0.87
2017-06-06T11:03:38.003Z,1.17
2017-06-06T11:06:11.003Z,1.30
2017-06-06T11:08:44.027Z,1.37
2017-06-06T11:11:16.947Z,1.37
2017-06-06T11:13:49.618Z,1.20
2017-06-06T11:16:21.803Z,1.13
2017-06-06T11:18:54.551Z,0.97
2017-06-06T11:21:27.109Z,1.40
2017-06-06T11:24:00.171Z,1.10
2017-06-06T11:26:30.128Z,0.93
2017-06-06T11:29:02.929Z,1.20
2017-06-06T11:31:35.732Z,1.00
2017-06-06T11:34:08.567Z,1.77
2017-06-06T11:36:41.316Z,1.20
2017-06-06T11:39:14.374Z,1.30
2017-06-06T11:41:47.264Z,1.50
2017-06-06T11:44:20.319Z,0.87
2017-06-06T11:46:53.370Z,0.90
2017-06-06T11:49:26.199Z,1.43
2017-06-06T11:51:58.799Z,1.87
2017-06-06T11:54:31.484Z,1.57
2017-06-06T11:57:03.981Z,0.70
2017-06-06T11:59:37.128Z,0.60
2017-06-06T12:02:09.783Z,1.23
2017-06-06T12:04:42.783Z,1.17
2017-06-06T12:07:14.998Z,0.80
2017-06-06T12:09:47.539Z,0.90
2017-06-06T12:12:20.372Z,0.97
2017-06-06T12:14:53.195Z,0.80
2017-06-06T12:17:25.911Z,0.90
2017-06-06T12:19:58.699Z,0.80
2017-06-06T12:22:31.383Z,0.47
2017-06-06T12:25:04.519Z,0.40
2017-06-06T12:27:37.543Z,0.90
2017-06-06T12:30:10.767Z,0.60
2017-06-06T12:32:43.383Z,0.60
2017-06-06T12:35:17.139Z,0.90
2017-06-06T12:37:50.071Z,0.93
2017-06-06T12:40:23.104Z,0.47
2017-06-06T12:42:55.983Z,1.33
2017-06-06T12:45:28.876Z,0.40
2017-06-06T12:48:01.747Z,0.70
2017-06-06T12:50:34.390Z,0.67
2017-06-06T12:53:07.022Z,0.63
2017-06-06T12:55:39.632Z,0.40
2017-06-06T12:58:12.371Z,0.60
2017-06-06T13:00:45.128Z,0.70
2017-06-06T13:03:17.834Z,0.20
2017-06-06T13:05:50.691Z,0.40
2017-06-06T13:08:23.212Z,0.30
2017-06-06T13:10:55.879Z,0.30
2017-06-06T13:13:28.360Z,0.30
2017-06-06T13:16:01.115Z,0.40
2017-06-06T13:18:33.792Z,0.47
2017-06-06T13:21:06.591Z,0.53
2017-06-06T13:23:39.616Z,0.27
2017-06-06T13:26:12.367Z,0.50
2017-06-06T13:28:45.476Z,0.60
2017-06-06T13:31:18.529Z,0.50
2017-06-06T13:33:51.462Z,0.40
2017-06-06T13:36:24.225Z,0.83
2017-06-06T13:38:57.019Z,0.50
2017-06-06T13:41:30.027Z,0.67
2017-06-06T13:44:02.784Z,0.77
2017-06-06T13:46:35.907Z,1.07
2017-06-06T13:49:08.579Z,0.50
2017-06-06T13:51:41.523Z,0.50
2017-06-06T13:54:14.523Z,0.60
2017-06-06T13:56:47.547Z,0.50
2017-06-06T13:59:20.582Z,1.20
2017-06-06T14:01:53.621Z,0.87
2017-06-06T14:04:26.312Z,0.60
2017-06-06T14:06:59.387Z,0.60
2017-06-06T14:09:32.159Z,1.00
2017-06-06T14:12:04.369Z,0.50
2017-06-06T14:14:37.379Z,0.93
2017-06-06T14:17:09.919Z,0.70
2017-06-06T14:19:43.411Z,0.70
2017-06-06T14:22:16.056Z,0.70
2017-06-06T14:24:48.797Z,0.50
2017-06-06T14:27:21.447Z,0.60
2017-06-06T14:29:53.944Z,1.03
2017-06-06T14:32:26.496Z,0.70
2017-06-06T14:34:59.459Z,1.00
2017-06-06T14:37:32.147Z,0.50
2017-06-06T14:40:04.987Z,1.13
2017-06-06T14:42:37.979Z,1.17
2017-06-06T14:45:11.836Z,0.60
2017-06-06T14:47:44.808Z,1.07
2017-06-06T14:50:17.903Z,0.60
2017-06-06T14:52:50.891Z,0.80
2017-06-06T14:55:23.851Z,0.60
2017-06-06T14:57:53.987Z,0.97
2017-06-06T15:00:26.691Z,1.00
2017-06-06T15:02:59.719Z,0.60
2017-06-06T15:05:32.850Z,2.10
2017-06-06T15:08:05.783Z,0.60
2017-06-06T15:10:38.516Z,0.73
2017-06-06T15:13:11.415Z,0.70
2017-06-06T15:15:44.148Z,1.00
2017-06-06T15:18:16.785Z,0.70
2017-06-06T15:20:49.596Z,0.60
2017-06-06T15:23:22.447Z,0.40
2017-06-06T15:25:55.451Z,0.97
2017-06-06T15:28:28.117Z,0.83
2017-06-06T15:31:00.739Z,0.93
2017-06-06T15:33:33.563Z,0.63
2017-06-06T15:36:06.095Z,1.33
2017-06-06T15:38:38.831Z,2.27
2017-06-06T15:41:11.408Z,0.77
2017-06-06T15:43:44.163Z,0.67
2017-06-06T15:46:16.751Z,1.03
2017-06-06T15:48:49.559Z,0.77
2017-06-06T15:51:22.416Z,2.30
2017-06-06T15:53:55.306Z,1.10
2017-06-06T15:56:28.156Z,1.10
2017-06-06T15:59:01.230Z,1.77
2017-06-06T16:01:34.148Z,0.97
2017-06-06T16:04:07.223Z,0.60
2017-06-06T16:06:41.020Z,1.07
2017-06-06T16:09:14.089Z,0.93
2017-06-06T16:11:47.079Z,0.90
2017-06-06T16:14:19.988Z,0.70
2017-06-06T16:16:52.187Z,0.60
2017-06-06T16:19:25.192Z,1.47
2017-06-06T16:21:58.211Z,1.00
2017-06-06T16:24:31.067Z,0.50
2017-06-06T16:27:04.118Z,0.70
2017-06-06T16:29:37.152Z,0.83
2017-06-06T16:32:33.255Z,0.90
2017-06-06T16:35:00.302Z,1.23
2017-06-06T16:37:27.390Z,0.67
2017-06-06T16:39:53.719Z,1.10
2017-06-06T16:42:20.927Z,0.80
2017-06-06T16:44:47.191Z,1.27
2017-06-06T16:47:14.251Z,1.20
2017-06-06T16:49:40.553Z,0.83
2017-06-06T16:52:07.550Z,0.90
2017-06-06T16:54:33.851Z,2.30
2017-06-06T16:57:00.171Z,1.00
2017-06-06T16:59:26.442Z,0.80
2017-06-06T17:01:52.810Z,1.00
2017-06-06T17:04:19.107Z,0.90
2017-06-06T17:06:45.400Z,0.80
2017-06-06T17:09:11.679Z,1.07
2017-06-06T17:11:38.812Z,0.93
2017-06-06T17:14:05.826Z,1.33
2017-06-06T17:16:32.111Z,0.87
2017-06-06T17:18:58.419Z,0.70
2017-06-06T17:21:24.685Z,0.90
2017-06-06T17:23:50.970Z,0.77
2017-06-06T17:26:17.293Z,0.80
2017-06-06T17:28:43.767Z,1.17
2017-06-06T17:31:10.065Z,0.70
2017-06-06T17:33:36.399Z,0.80
2017-06-06T17:36:02.799Z,0.70
2017-06-06T17:38:29.339Z,1.37
2017-06-06T17:40:55.775Z,1.10
2017-06-06T17:43:22.219Z,0.40
2017-06-06T17:45:48.565Z,0.70
2017-06-06T17:48:15.408Z,0.73
2017-06-06T17:50:42.300Z,0.63
2017-06-06T17:53:09.068Z,0.90
2017-06-06T17:55:36.138Z,1.00
2017-06-06T17:58:02.836Z,0.53
2017-06-06T18:00:29.276Z,0.70
2017-06-06T18:02:56.921Z,0.73
2017-06-06T18:05:23.502Z,0.90
2017-06-06T18:07:50.376Z,0.70
2017-06-06T18:10:17.262Z,0.70
2017-06-06T18:12:44.274Z,0.57
2017-06-06T18:15:11.428Z,0.87
2017-06-06T18:17:38.532Z,1.10
2017-06-06T18:20:06.106Z,0.80
2017-06-06T18:22:33.226Z,0.70
2017-06-06T18:25:00.736Z,0.90
2017-06-06T18:27:27.951Z,1.47
2017-06-06T18:29:55.617Z,0.70
2017-06-06T18:32:23.237Z,0.70
2017-06-06T18:34:50.975Z,0.60
2017-06-06T18:37:18.720Z,0.60
2017-06-06T18:39:46.630Z,0.53
2017-06-06T18:42:15.159Z,1.07
2017-06-06T18:44:42.871Z,0.60
2017-06-06T18:47:11.654Z,0.80
2017-06-06T18:49:39.414Z,1.27
2017-06-06T18:52:07.200Z,0.60
2017-06-06T18:54:36.246Z,0.60
2017-06-06T18:57:04.753Z,0.57
2017-06-06T18:59:33.835Z,0.40
2017-06-06T19:02:03.503Z,0.50
2017-06-06T19:04:31.635Z,0.50
2017-06-06T19:06:59.416Z,0.60
2017-06-06T19:09:28.369Z,0.67
2017-06-06T19:11:56.246Z,0.60
2017-06-06T19:14:24.015Z,0.70
2017-06-06T19:16:52.143Z,0.40
2017-06-06T19:19:19.998Z,0.63
2017-06-06T19:21:48.012Z,0.40
2017-06-06T19:24:15.969Z,0.50
2017-06-06T19:26:45.036Z,0.63
2017-06-06T19:29:13.652Z,0.50
2017-06-06T19:31:43.152Z,0.50
2017-06-06T19:34:12.255Z,0.67
2017-06-06T19:36:41.661Z,0.73
2017-06-06T19:39:10.569Z,0.70
2017-06-06T19:41:41.477Z,0.63
2017-06-06T19:44:10.381Z,0.90
2017-06-06T19:46:38.225Z,0.55
2017-06-06T19:49:06.035Z,0.67
2017-06-06T19:51:34.426Z,0.77
2017-06-06T19:54:02.257Z,0.40
2017-06-06T19:56:30.313Z,0.67
2017-06-06T19:58:58.456Z,0.80
2017-06-06T20:01:26.231Z,0.57
2017-06-06T20:03:54.012Z,0.40
2017-06-06T20:06:22.016Z,1.02
2017-06-06T20:08:49.833Z,0.47
2017-06-06T20:11:17.709Z,0.40
2017-06-06T20:13:46.503Z,0.70
2017-06-06T20:16:14.302Z,0.68
2017-06-06T20:18:42.886Z,0.60
2017-06-06T20:21:11.319Z,0.50
2017-06-06T20:23:39.396Z,0.70
2017-06-06T20:26:07.181Z,0.60
2017-06-06T20:28:35.175Z,0.50
2017-06-06T20:31:03.097Z,1.20
2017-06-06T20:33:30.964Z,0.70
2017-06-06T20:35:59.002Z,0.70
2017-06-06T20:38:26.788Z,0.50
2017-06-06T20:40:54.537Z,0.40
2017-06-06T20:43:22.579Z,0.65
2017-06-06T20:45:51.234Z,0.80
2017-06-06T20:48:18.956Z,0.65
2017-06-06T20:50:47.827Z,1.30
2017-06-06T20:53:16.789Z,0.50
2017-06-06T20:55:45.662Z,0.60
2017-06-06T20:58:14.774Z,0.70
2017-06-06T21:00:43.428Z,0.73
2017-06-06T21:03:12.615Z,0.50
2017-06-06T21:05:41.397Z,0.40
2017-06-06T21:08:09.447Z,0.70
2017-06-06T21:10:38.180Z,0.55
2017-06-06T21:13:06.797Z,0.40
2017-06-06T21:15:33.844Z,0.50
2017-06-06T21:18:00.575Z,0.60
2017-06-06T21:20:27.226Z,0.65
2017-06-06T21:22:54.738Z,0.70
2017-06-06T21:25:21.130Z,0.70
2017-06-06T21:27:47.651Z,1.00
2017-06-06T21:30:13.937Z,0.77
2017-06-06T21:32:40.238Z,0.37
2017-06-06T21:35:06.551Z,0.73
2017-06-06T21:37:32.825Z,0.93
2017-06-06T21:39:59.091Z,0.60
2017-06-06T21:42:25.412Z,0.40
2017-06-06T21:44:51.668Z,0.73
2017-06-06T21:47:17.959Z,0.60
2017-06-06T21:49:44.374Z,0.80
2017-06-06T21:52:10.647Z,0.50
2017-06-06T21:54:36.955Z,0.55
2017-06-06T21:57:03.303Z,0.80
2017-06-06T21:59:29.582Z,0.73
2017-06-06T22:01:55.894Z,0.70
2017-06-06T22:04:22.942Z,0.65
2017-06-06T22:06:49.942Z,0.57
2017-06-06T22:09:16.223Z,0.50
2017-06-06T22:11:42.525Z,0.73
2017-06-06T22:14:08.809Z,0.68
2017-06-06T22:16:35.079Z,0.57
2017-06-06T22:19:01.375Z,0.68
2017-06-06T22:21:27.675Z,0.65
2017-06-06T22:23:53.972Z,0.70
2017-06-06T22:26:20.548Z,0.80
2017-06-06T22:28:48.173Z,0.60
2017-06-06T22:31:14.475Z,0.50
2017-06-06T22:33:42.395Z,0.70
2017-06-06T22:36:09.703Z,0.50
2017-06-06T22:38:36.480Z,0.60
2017-06-06T22:41:03.579Z,0.60
2017-06-06T22:43:29.983Z,0.60
2017-06-06T22:45:56.235Z,0.60
2017-06-06T22:48:22.544Z,0.60
2017-06-06T22:50:48.819Z,0.50
2017-06-06T22:53:15.091Z,0.90
2017-06-06T22:55:41.402Z,0.65
2017-06-06T22:58:07.674Z,0.80
2017-06-06T23:00:34.686Z,0.30
2017-06-06T23:03:01.755Z,1.00
2017-06-06T23:05:28.026Z,0.75
2017-06-06T23:07:54.311Z,0.70
2017-06-06T23:10:20.637Z,1.17
2017-06-06T23:12:46.919Z,0.65
2017-06-06T23:15:13.183Z,0.55
2017-06-06T23:17:40.242Z,0.55
2017-06-06T23:20:07.271Z,1.05
2017-06-06T23:22:34.279Z,0.68
2017-06-06T23:25:00.591Z,0.85
2017-06-06T23:27:26.854Z,0.70
2017-06-06T23:29:53.119Z,1.70
2017-06-06T23:32:20.174Z,0.40
2017-06-06T23:34:47.207Z,0.70
2017-06-06T23:37:14.195Z,0.57
2017-06-06T23:39:40.506Z,0.65
2017-06-06T23:42:06.767Z,0.60
2017-06-06T23:44:33.775Z,0.75
2017-06-06T23:47:00.826Z,0.45
2017-06-06T23:49:27.094Z,0.70
2017-06-06T23:52:00.359Z,0.60
2017-06-06T23:54:26.663Z,0.85
2017-06-06T23:56:52.939Z,0.80
2017-06-06T23:59:19.987Z,0.82
